PWSweather.com
Personal Weather Stations
Station Observations
SBERGENWX
Wood Ridge, NJ 07075

Wood Ridge, NJ 07075

Lat: 40.851667, Lon: -74.088131

Elevation: 177

Station Type: Davis Vantage Vue

http://201weather.com/

Latest ConditionsUpdated 11:45:01 AM EDT Tuesday, Sep 25, 2018
Currently Today's Max Today's Min Today's Average
Temperature 59.1°F15.1°C 60.3°F15.7°C 54.5°F12.5°C 56.5°F13.6°C
Dew Point 58.2°F14.6°C 58.2°F14.6°C 51.4°F10.8°C 53.9°F12.2°C
Winds 2.3 mph W3.7 kmh W 4.6 mph -7.4 kmh - - 2.3 mph 3.7 kmh
Wind Gusts 3.5 mph5.6 kmh 11.5 mph18.5 kmh - -
Humidity 97% 97% 76% 91%
Pressure 30.27 in1025.1 mb 30.49 in1032.5 mb 30.27 in1025.1 mb -
Precipitation - 0.74 in18.8 mm - -
Hour Temp Dew Point Humidity Winds Wind Gusts Pressure Precip Precip Rate Daily Precip Total
11:45 AM 59.1°F15.1°C 58.2°F14.6°C 97% 2.3 mph W3.7 kmh W 3.5 mph5.6 kmh 30.27 in1025.1 mb - 0.50 in12.7 mm 0.74 in18.8 mm
11:30 AM 58.8°F14.9°C 57.9°F14.4°C 97% Calm Calm -- 30.28 in1025.4 mb - 0.39 in9.9 mm 0.57 in14.5 mm
11:15 AM 58.4°F14.7°C 57.6°F14.2°C 97% Calm Calm 1.2 mph1.9 kmh 30.29 in1025.7 mb - 0.34 in8.6 mm 0.44 in11.2 mm
11:00 AM 58.1°F14.5°C 57.0°F13.9°C 96% 1.2 mph NNE1.9 kmh NNE 3.5 mph5.6 kmh 30.30 in1026.1 mb - 0.28 in7.1 mm 0.34 in8.6 mm
10:45 AM 58.0°F14.4°C 56.9°F13.8°C 96% 2.3 mph NNE3.7 kmh NNE 4.6 mph7.4 kmh 30.30 in1026.1 mb - 0.25 in6.4 mm 0.28 in7.1 mm
10:30 AM 57.7°F14.3°C 56.6°F13.7°C 96% Calm Calm 1.2 mph1.9 kmh 30.32 in1026.8 mb - 0.15 in3.8 mm 0.18 in4.6 mm
10:15 AM 57.6°F14.2°C 56.5°F13.6°C 96% 2.3 mph W3.7 kmh W 3.5 mph5.6 kmh 30.32 in1026.8 mb - 0.09 in2.3 mm 0.12 in3.0 mm
10:00 AM 57.5°F14.2°C 56.4°F13.6°C 96% 1.2 mph NNE1.9 kmh NNE 4.6 mph7.4 kmh 30.32 in1026.8 mb - 0.04 in1.0 mm 0.07 in1.8 mm
09:45 AM 57.4°F14.1°C 56.3°F13.5°C 96% 2.3 mph NNE3.7 kmh NNE 3.5 mph5.6 kmh 30.32 in1026.8 mb - 0.00 in0.0 mm 0.03 in0.8 mm
09:30 AM 57.3°F14.1°C 56.1°F13.4°C 96% 2.3 mph NE3.7 kmh NE 3.5 mph5.6 kmh 30.32 in1026.8 mb - 0.00 in0.0 mm 0.03 in0.8 mm
09:15 AM 56.8°F13.8°C 55.7°F13.2°C 96% 2.3 mph NE3.7 kmh NE 3.5 mph5.6 kmh 30.33 in1027.1 mb - 0.02 in0.5 mm 0.03 in0.8 mm
09:00 AM 56.5°F13.6°C 55.4°F13.0°C 96% 3.5 mph N5.6 kmh N 4.6 mph7.4 kmh 30.33 in1027.1 mb - 0.02 in0.5 mm 0.03 in0.8 mm
08:45 AM 56.4°F13.6°C 55.3°F12.9°C 96% 3.5 mph NE5.6 kmh NE 4.6 mph7.4 kmh 30.33 in1027.1 mb - 0.02 in0.5 mm 0.03 in0.8 mm
08:30 AM 56.2°F13.4°C 55.1°F12.8°C 96% 2.3 mph NE3.7 kmh NE 3.5 mph5.6 kmh 30.34 in1027.4 mb - 0.02 in0.5 mm 0.03 in0.8 mm
08:15 AM 56.0°F13.3°C 54.9°F12.7°C 96% 2.3 mph NE3.7 kmh NE 4.6 mph7.4 kmh 30.35 in1027.8 mb - 0.00 in0.0 mm 0.01 in0.3 mm
08:00 AM 55.7°F13.2°C 54.6°F12.6°C 96% 2.3 mph NNE3.7 kmh NNE 5.8 mph9.3 kmh 30.36 in1028.1 mb - 0.00 in0.0 mm 0.01 in0.3 mm
07:45 AM 55.5°F13.1°C 54.4°F12.4°C 96% 3.5 mph NNE5.6 kmh NNE 4.6 mph7.4 kmh 30.36 in1028.1 mb - 0.00 in0.0 mm 0.01 in0.3 mm
07:30 AM 55.6°F13.1°C 54.2°F12.3°C 95% 1.2 mph NE1.9 kmh NE 3.5 mph5.6 kmh 30.36 in1028.1 mb - 0.00 in0.0 mm 0.01 in0.3 mm
07:15 AM 55.8°F13.2°C 54.7°F12.6°C 96% 3.5 mph NNE5.6 kmh NNE 3.5 mph5.6 kmh 30.36 in1028.1 mb - 0.00 in0.0 mm 0.01 in0.3 mm
07:00 AM 55.7°F13.2°C 54.3°F12.4°C 95% 2.3 mph NNE3.7 kmh NNE 4.6 mph7.4 kmh 30.36 in1028.1 mb - 0.00 in0.0 mm 0.01 in0.3 mm
06:45 AM 55.5°F13.1°C 54.1°F12.3°C 95% 1.2 mph NNE1.9 kmh NNE 3.5 mph5.6 kmh 30.36 in1028.1 mb - 0.00 in0.0 mm 0.01 in0.3 mm
06:30 AM 55.4°F13.0°C 54.0°F12.2°C 95% 2.3 mph NE3.7 kmh NE 8.1 mph13.0 kmh 30.36 in1028.1 mb - 0.00 in0.0 mm 0.01 in0.3 mm
06:15 AM 55.3°F12.9°C 53.9°F12.2°C 95% 1.2 mph NE1.9 kmh NE 2.3 mph3.7 kmh 30.36 in1028.1 mb - 0.00 in0.0 mm 0.01 in0.3 mm
06:00 AM 55.0°F12.8°C 53.6°F12.0°C 95% 1.2 mph NE1.9 kmh NE 3.5 mph5.6 kmh 30.37 in1028.4 mb - 0.00 in0.0 mm 0.01 in0.3 mm
05:45 AM 54.6°F12.6°C 53.2°F11.8°C 95% 2.3 mph NE3.7 kmh NE 3.5 mph5.6 kmh 30.38 in1028.8 mb - 0.00 in0.0 mm 0.01 in0.3 mm
05:30 AM 54.5°F12.5°C 52.8°F11.6°C 94% Calm Calm 3.5 mph5.6 kmh 30.38 in1028.8 mb - 0.00 in0.0 mm 0.01 in0.3 mm
05:15 AM 54.5°F12.5°C 52.8°F11.6°C 94% 3.5 mph NNE5.6 kmh NNE 5.8 mph9.3 kmh 30.38 in1028.8 mb - 0.00 in0.0 mm 0.01 in0.3 mm
05:00 AM 54.5°F12.5°C 52.5°F11.4°C 93% 1.2 mph NE1.9 kmh NE 5.8 mph9.3 kmh 30.38 in1028.8 mb - 0.00 in0.0 mm 0.01 in0.3 mm
04:45 AM 54.7°F12.6°C 52.4°F11.3°C 92% 2.3 mph NNE3.7 kmh NNE 4.6 mph7.4 kmh 30.39 in1029.1 mb - 0.00 in0.0 mm 0.01 in0.3 mm
04:30 AM 55.1°F12.8°C 52.5°F11.4°C 91% 1.2 mph E1.9 kmh E 2.3 mph3.7 kmh 30.40 in1029.5 mb - 0.00 in0.0 mm 0.01 in0.3 mm
04:15 AM 55.5°F13.1°C 52.6°F11.4°C 90% 3.5 mph NNE5.6 kmh NNE 8.1 mph13.0 kmh 30.40 in1029.5 mb - 0.00 in0.0 mm 0.01 in0.3 mm
04:00 AM 55.8°F13.2°C 52.3°F11.3°C 88% 4.6 mph NE7.4 kmh NE 10.4 mph16.7 kmh 30.41 in1029.8 mb - 0.00 in0.0 mm 0.01 in0.3 mm
03:45 AM 55.9°F13.3°C 52.4°F11.3°C 88% 2.3 mph NE3.7 kmh NE 4.6 mph7.4 kmh 30.41 in1029.8 mb - 0.00 in0.0 mm 0.01 in0.3 mm
03:30 AM 55.9°F13.3°C 52.4°F11.3°C 88% 2.3 mph NE3.7 kmh NE 5.8 mph9.3 kmh 30.41 in1029.8 mb - 0.01 in0.3 mm 0.01 in0.3 mm
03:15 AM 55.9°F13.3°C 52.4°F11.3°C 88% 4.6 mph NE7.4 kmh NE 6.9 mph11.1 kmh 30.42 in1030.1 mb - 0.01 in0.3 mm 0.01 in0.3 mm
03:00 AM 55.7°F13.2°C 52.2°F11.2°C 88% 2.3 mph NE3.7 kmh NE 5.8 mph9.3 kmh 30.43 in1030.5 mb - 0.01 in0.3 mm 0.01 in0.3 mm
02:45 AM 55.8°F13.2°C 52.3°F11.3°C 88% 3.5 mph NE5.6 kmh NE 5.8 mph9.3 kmh 30.43 in1030.5 mb - 0.01 in0.3 mm 0.01 in0.3 mm
02:30 AM 55.9°F13.3°C 52.4°F11.3°C 88% 3.5 mph NNE5.6 kmh NNE 6.9 mph11.1 kmh 30.44 in1030.8 mb - 0.00 in0.0 mm 0.00 in0.0 mm
02:15 AM 56.0°F13.3°C 52.5°F11.4°C 88% 3.5 mph NE5.6 kmh NE 5.8 mph9.3 kmh 30.45 in1031.2 mb - 0.00 in0.0 mm 0.00 in0.0 mm
02:00 AM 56.0°F13.3°C 52.2°F11.2°C 87% 1.2 mph NE1.9 kmh NE 3.5 mph5.6 kmh 30.45 in1031.2 mb - 0.00 in0.0 mm 0.00 in0.0 mm
01:45 AM 56.4°F13.6°C 51.9°F11.1°C 85% 3.5 mph NE5.6 kmh NE 11.5 mph18.5 kmh 30.46 in1031.5 mb - 0.00 in0.0 mm 0.00 in0.0 mm
01:30 AM 57.0°F13.9°C 51.8°F11.0°C 83% 2.3 mph NE3.7 kmh NE 3.5 mph5.6 kmh 30.46 in1031.5 mb - 0.00 in0.0 mm 0.00 in0.0 mm
01:15 AM 57.1°F13.9°C 51.7°F10.9°C 82% 1.2 mph SE1.9 kmh SE 4.6 mph7.4 kmh 30.47 in1031.8 mb - 0.00 in0.0 mm 0.00 in0.0 mm
01:00 AM 57.2°F14.0°C 51.4°F10.8°C 81% 2.3 mph NNE3.7 kmh NNE 3.5 mph5.6 kmh 30.47 in1031.8 mb - 0.00 in0.0 mm 0.00 in0.0 mm
12:45 AM 57.6°F14.2°C 51.5°F10.8°C 80% 3.5 mph NE5.6 kmh NE 6.9 mph11.1 kmh 30.48 in1032.2 mb - 0.00 in0.0 mm 0.00 in0.0 mm
12:30 AM 57.9°F14.4°C 51.8°F11.0°C 80% 2.3 mph NE3.7 kmh NE 6.9 mph11.1 kmh 30.48 in1032.2 mb - 0.00 in0.0 mm 0.00 in0.0 mm
12:15 AM 59.0°F15.0°C 51.8°F11.0°C 77% 2.3 mph NE3.7 kmh NE 6.9 mph11.1 kmh 30.48 in1032.2 mb - 0.00 in0.0 mm 0.00 in0.0 mm
12:00 AM 60.3°F15.7°C 52.7°F11.5°C 76% 3.5 mph E5.6 kmh E 4.6 mph7.4 kmh 30.49 in1032.5 mb - 0.00 in0.0 mm 0.00 in0.0 mm